createdAt,value
2019-03-13T00:01:12.081Z,3.57
2019-03-13T00:03:43.343Z,3.58
2019-03-13T00:06:13.879Z,3.61
2019-03-13T00:08:44.439Z,3.66
2019-03-13T00:11:14.779Z,3.69
2019-03-13T00:13:45.137Z,3.70
2019-03-13T00:16:15.638Z,3.72
2019-03-13T00:18:45.983Z,3.73
2019-03-13T00:21:16.422Z,3.74
2019-03-13T00:23:46.961Z,3.75
2019-03-13T00:26:17.501Z,3.75
2019-03-13T00:28:47.849Z,3.76
2019-03-13T00:31:18.283Z,3.78
2019-03-13T00:33:48.630Z,3.78
2019-03-13T00:36:19.267Z,3.79
2019-03-13T00:38:51.076Z,3.80
2019-03-13T00:41:21.611Z,3.83
2019-03-13T00:43:52.159Z,3.84
2019-03-13T00:46:22.601Z,3.80
2019-03-13T00:48:52.945Z,3.82
2019-03-13T00:51:23.284Z,3.76
2019-03-13T00:53:53.682Z,3.73
2019-03-13T00:56:23.982Z,3.66
2019-03-13T00:58:54.425Z,3.61
2019-03-13T01:01:26.342Z,3.59
2019-03-13T01:04:04.497Z,3.56
2019-03-13T01:06:36.481Z,3.55
2019-03-13T01:09:07.392Z,3.54
2019-03-13T01:11:37.661Z,3.54
2019-03-13T01:14:08.006Z,3.52
2019-03-13T01:16:38.276Z,3.53
2019-03-13T01:19:08.725Z,3.56
2019-03-13T01:21:39.064Z,3.57
2019-03-13T01:24:09.336Z,3.56
2019-03-13T01:26:39.678Z,3.58
2019-03-13T01:29:09.947Z,3.55
2019-03-13T01:31:56.877Z,3.60
2019-03-13T01:34:31.787Z,3.62
2019-03-13T01:37:02.052Z,3.63
2019-03-13T01:39:32.393Z,3.64
2019-03-13T01:42:02.666Z,3.69
2019-03-13T01:44:33.116Z,3.72
2019-03-13T01:47:03.390Z,3.77
2019-03-13T01:49:33.664Z,3.79
2019-03-13T01:52:04.000Z,3.81
2019-03-13T01:54:34.273Z,3.83
2019-03-13T01:57:04.536Z,3.88
2019-03-13T01:59:34.806Z,3.88
2019-03-13T02:02:05.079Z,3.89
2019-03-13T02:04:35.415Z,3.89
2019-03-13T02:07:05.750Z,3.90
2019-03-13T02:09:36.028Z,3.93
2019-03-13T02:12:07.278Z,3.95
2019-03-13T02:14:37.553Z,3.98
2019-03-13T02:17:07.821Z,4.00
2019-03-13T02:19:38.092Z,4.05
2019-03-13T02:22:08.535Z,4.04
2019-03-13T02:24:39.079Z,4.06
2019-03-13T02:27:09.410Z,4.06
2019-03-13T02:29:39.755Z,4.04
2019-03-13T02:32:11.177Z,4.07
2019-03-13T02:34:41.529Z,4.06
2019-03-13T02:37:11.790Z,4.06
2019-03-13T02:39:42.333Z,4.05
2019-03-13T02:42:12.856Z,4.05
2019-03-13T02:44:43.112Z,4.08
2019-03-13T02:47:13.652Z,4.08
2019-03-13T02:49:43.922Z,4.11
2019-03-13T02:52:14.190Z,4.08
2019-03-13T02:54:44.462Z,4.10
2019-03-13T02:57:14.802Z,4.07
2019-03-13T02:59:45.132Z,4.06
2019-03-13T03:02:17.049Z,4.07
2019-03-13T03:04:48.171Z,4.08
2019-03-13T03:07:18.445Z,4.09
2019-03-13T03:09:48.709Z,4.12
2019-03-13T03:12:19.141Z,4.14
2019-03-13T03:15:03.073Z,4.16
2019-03-13T03:17:33.802Z,4.16
2019-03-13T03:20:06.907Z,4.18
2019-03-13T03:22:37.165Z,4.20
2019-03-13T03:25:10.337Z,4.22
2019-03-13T03:27:40.667Z,4.21
2019-03-13T03:30:22.457Z,4.25
2019-03-13T03:32:52.841Z,4.25
2019-03-13T03:35:23.145Z,4.26
2019-03-13T03:37:53.392Z,4.25
2019-03-13T03:40:23.863Z,4.25
2019-03-13T03:42:54.376Z,4.26
2019-03-13T03:45:24.669Z,4.31
2019-03-13T03:47:54.904Z,4.35
2019-03-13T03:50:25.151Z,4.31
2019-03-13T03:52:55.462Z,4.24
2019-03-13T03:55:25.711Z,4.28
2019-03-13T03:57:55.945Z,4.34
2019-03-13T04:00:26.195Z,4.38
2019-03-13T04:02:56.501Z,4.39
2019-03-13T04:05:27.673Z,4.41
2019-03-13T04:07:57.893Z,4.42
2019-03-13T04:10:28.129Z,4.43
2019-03-13T04:12:58.365Z,4.43
2019-03-13T04:15:28.776Z,4.48
2019-03-13T04:17:59.284Z,4.49
2019-03-13T04:20:29.537Z,4.49
2019-03-13T04:22:59.765Z,4.51
2019-03-13T04:25:30.770Z,4.55
2019-03-13T04:28:01.078Z,4.58
2019-03-13T04:30:31.404Z,4.65
2019-03-13T04:33:02.885Z,4.69
2019-03-13T04:35:33.149Z,4.76
2019-03-13T04:38:03.382Z,4.77
2019-03-13T04:40:33.805Z,4.81
2019-03-13T04:43:04.109Z,4.85
2019-03-13T04:45:34.434Z,4.88
2019-03-13T04:48:05.044Z,4.92
2019-03-13T04:50:35.372Z,4.99
2019-03-13T04:53:05.609Z,5.01
2019-03-13T04:55:36.036Z,5.00
2019-03-13T04:58:06.286Z,5.06
2019-03-13T05:00:36.615Z,5.10
2019-03-13T05:03:08.347Z,5.08
2019-03-13T05:05:43.828Z,5.11
2019-03-13T05:08:20.555Z,5.09
2019-03-13T05:10:50.801Z,5.11
2019-03-13T05:13:21.093Z,5.08
2019-03-13T05:15:52.288Z,5.07
2019-03-13T05:18:22.912Z,5.08
2019-03-13T05:20:54.331Z,5.06
2019-03-13T05:23:24.647Z,5.07
2019-03-13T05:25:54.968Z,5.05
2019-03-13T05:28:25.214Z,5.06
2019-03-13T05:30:55.724Z,5.08
2019-03-13T05:33:25.966Z,5.03
2019-03-13T05:35:56.217Z,5.02
2019-03-13T05:38:26.477Z,5.02
2019-03-13T05:40:57.064Z,5.01
2019-03-13T05:43:27.381Z,4.90
2019-03-13T05:45:57.695Z,4.88
2019-03-13T05:48:28.204Z,4.87
2019-03-13T05:50:58.522Z,4.85
2019-03-13T05:53:29.103Z,4.82
2019-03-13T05:55:59.349Z,4.80
2019-03-13T05:58:29.593Z,4.77
2019-03-13T06:00:59.897Z,4.75
2019-03-13T06:03:30.227Z,4.70
2019-03-13T06:06:01.599Z,4.64
2019-03-13T06:08:33.085Z,4.61
2019-03-13T06:11:03.616Z,4.61
2019-03-13T06:13:33.957Z,4.55
2019-03-13T06:16:04.266Z,4.57
2019-03-13T06:18:34.559Z,4.62
2019-03-13T06:21:05.007Z,4.64
2019-03-13T06:23:35.323Z,4.61
2019-03-13T06:26:05.644Z,4.64
2019-03-13T06:28:35.876Z,4.65
2019-03-13T06:31:06.180Z,4.64
2019-03-13T06:33:37.492Z,4.60
2019-03-13T06:36:08.007Z,4.61
2019-03-13T06:38:38.323Z,4.57
2019-03-13T06:41:08.661Z,4.60
2019-03-13T06:43:38.886Z,4.71
2019-03-13T06:46:09.126Z,4.68
2019-03-13T06:48:39.370Z,4.61
2019-03-13T06:51:09.681Z,4.63
2019-03-13T06:53:40.006Z,4.60
2019-03-13T06:56:10.336Z,4.60
2019-03-13T06:58:45.124Z,4.57
2019-03-13T07:01:22.899Z,4.57
2019-03-13T07:04:09.822Z,4.59
2019-03-13T07:06:48.737Z,4.64
2019-03-13T07:09:20.695Z,4.57
2019-03-13T07:11:52.585Z,4.60
2019-03-13T07:14:24.479Z,4.66
2019-03-13T07:16:56.372Z,4.69
2019-03-13T07:19:31.327Z,4.79
2019-03-13T07:22:19.230Z,4.89
2019-03-13T07:24:53.867Z,4.91
2019-03-13T07:27:28.521Z,4.91
2019-03-13T07:30:00.491Z,4.85
2019-03-13T07:32:35.574Z,4.88
2019-03-13T07:35:14.548Z,4.88
2019-03-13T07:37:53.877Z,4.89
2019-03-13T07:40:28.670Z,4.90
2019-03-13T07:43:09.364Z,4.99
2019-03-13T07:45:41.325Z,5.14
2019-03-13T07:48:13.281Z,5.34
2019-03-13T07:50:51.222Z,5.54
2019-03-13T07:53:32.039Z,5.65
2019-03-13T07:56:03.999Z,6.00
2019-03-13T07:58:54.081Z,6.30
2019-03-13T08:01:37.922Z,8.96
2019-03-13T08:04:09.886Z,10.37
2019-03-13T08:06:44.613Z,12.12
2019-03-13T08:09:16.568Z,10.21
2019-03-13T08:11:54.298Z,9.04
2019-03-13T08:14:44.180Z,8.57
2019-03-13T08:17:16.353Z,9.13
2019-03-13T08:19:50.989Z,8.89
2019-03-13T08:22:28.602Z,8.35
2019-03-13T08:25:00.559Z,7.87
2019-03-13T08:27:35.592Z,7.66
2019-03-13T08:30:20.515Z,7.85
2019-03-13T08:32:52.668Z,7.64
2019-03-13T08:35:39.819Z,7.49
2019-03-13T08:38:28.228Z,8.99
2019-03-13T08:41:03.110Z,9.34
2019-03-13T08:43:47.281Z,12.02
2019-03-13T08:46:19.240Z,11.14
2019-03-13T08:48:51.191Z,10.32
2019-03-13T08:51:29.936Z,9.48
2019-03-13T08:54:36.061Z,9.16
2019-03-13T08:57:09.451Z,8.83
2019-03-13T08:59:41.441Z,8.90
2019-03-13T09:02:16.251Z,9.02
2019-03-13T09:04:48.225Z,9.58
2019-03-13T09:07:22.965Z,9.71
2019-03-13T09:10:11.342Z,9.42
2019-03-13T09:12:45.900Z,9.04
2019-03-13T09:15:17.864Z,8.67
2019-03-13T09:17:49.747Z,8.81
2019-03-13T09:20:30.886Z,9.12
2019-03-13T09:23:05.527Z,9.94
2019-03-13T09:25:37.502Z,9.79
2019-03-13T09:28:15.105Z,10.04
2019-03-13T09:31:03.101Z,9.97
2019-03-13T09:33:52.932Z,9.56
2019-03-13T09:36:24.880Z,8.97
2019-03-13T09:39:02.486Z,8.90
2019-03-13T09:41:48.135Z,8.56
2019-03-13T09:44:33.016Z,8.63
2019-03-13T09:47:16.878Z,8.86
2019-03-13T09:49:54.938Z,8.60
2019-03-13T09:52:43.280Z,8.81
2019-03-13T09:55:15.243Z,8.83
2019-03-13T09:57:47.122Z,8.65
2019-03-13T10:00:35.108Z,8.34
2019-03-13T10:03:18.821Z,8.67
2019-03-13T10:05:50.781Z,8.71
2019-03-13T10:08:31.415Z,8.73
2019-03-13T10:11:06.062Z,9.26
2019-03-13T10:13:38.409Z,9.69
2019-03-13T10:16:13.337Z,9.37
2019-03-13T10:18:58.161Z,9.37
2019-03-13T10:21:48.311Z,9.51
2019-03-13T10:24:20.483Z,10.39
2019-03-13T10:26:52.828Z,10.62
2019-03-13T10:29:27.587Z,10.33
2019-03-13T10:32:15.773Z,10.46
2019-03-13T10:34:53.618Z,10.23
2019-03-13T10:37:34.703Z,10.34
2019-03-13T10:40:25.994Z,10.71
2019-03-13T10:42:58.032Z,10.37
2019-03-13T10:45:30.000Z,10.21
2019-03-13T10:48:04.654Z,9.96
2019-03-13T10:50:36.880Z,9.84
2019-03-13T10:53:25.228Z,10.46
2019-03-13T10:56:13.299Z,10.56
2019-03-13T10:58:45.269Z,10.37
2019-03-13T11:01:19.921Z,10.18
2019-03-13T11:04:03.821Z,9.78
2019-03-13T11:06:54.097Z,9.75
2019-03-13T11:09:18.491Z,9.48
2019-03-13T11:12:02.178Z,9.49
2019-03-13T11:14:40.860Z,9.48
2019-03-13T11:17:21.968Z,9.89
2019-03-13T11:19:53.880Z,9.89
2019-03-13T11:22:26.036Z,9.87
2019-03-13T11:25:10.055Z,9.71
2019-03-13T11:27:42.015Z,9.72
2019-03-13T11:30:16.146Z,9.30
2019-03-13T11:32:48.096Z,9.56
2019-03-13T11:35:19.993Z,9.74
2019-03-13T11:37:55.036Z,9.87
2019-03-13T11:40:27.943Z,9.77
2019-03-13T11:43:09.345Z,10.02
2019-03-13T11:45:56.131Z,9.79
2019-03-13T11:48:33.846Z,9.91
2019-03-13T11:51:23.702Z,9.75
2019-03-13T11:54:01.573Z,10.05
2019-03-13T11:56:36.136Z,10.66
2019-03-13T11:59:25.843Z,10.86
2019-03-13T12:01:57.728Z,10.81
2019-03-13T12:04:29.698Z,11.11
2019-03-13T12:07:13.963Z,11.49
2019-03-13T12:10:03.850Z,11.73
2019-03-13T12:12:44.582Z,11.57
2019-03-13T12:15:22.486Z,11.42
2019-03-13T12:17:57.318Z,11.40
2019-03-13T12:20:29.372Z,11.36
2019-03-13T12:23:07.462Z,11.35
2019-03-13T12:25:39.357Z,11.27
2019-03-13T12:28:29.007Z,11.17
2019-03-13T12:31:03.950Z,11.11
2019-03-13T12:33:42.033Z,10.93
2019-03-13T12:36:31.711Z,10.38
2019-03-13T12:39:09.632Z,10.10
2019-03-13T12:41:50.930Z,9.95
2019-03-13T12:44:25.511Z,9.78
2019-03-13T12:47:06.206Z,9.73
2019-03-13T12:49:41.096Z,10.06
2019-03-13T12:52:13.069Z,10.06
2019-03-13T12:54:47.721Z,9.99
2019-03-13T12:57:23.565Z,10.13
2019-03-13T12:59:55.549Z,9.98
2019-03-13T13:02:37.416Z,9.92
2019-03-13T13:05:17.052Z,10.03
2019-03-13T13:07:51.896Z,10.10
2019-03-13T13:10:23.984Z,10.02
2019-03-13T13:13:01.860Z,9.94
2019-03-13T13:15:34.032Z,9.89
2019-03-13T13:18:05.989Z,10.10
2019-03-13T13:20:37.512Z,10.45
2019-03-13T13:23:08.066Z,10.81
2019-03-13T13:25:38.428Z,10.95
2019-03-13T13:28:08.754Z,10.98
2019-03-13T13:30:39.268Z,10.60
2019-03-13T13:33:09.841Z,10.35
2019-03-13T13:35:40.111Z,10.34
2019-03-13T13:38:10.584Z,10.25
2019-03-13T13:40:42.199Z,10.44
2019-03-13T13:43:12.562Z,10.79
2019-03-13T13:45:45.561Z,10.86
2019-03-13T13:48:15.888Z,10.90
2019-03-13T13:50:46.140Z,10.64
2019-03-13T13:53:16.774Z,10.59
2019-03-13T13:55:47.223Z,10.53
2019-03-13T13:58:17.580Z,10.49
2019-03-13T14:00:49.024Z,10.77
2019-03-13T14:03:19.453Z,10.87
2019-03-13T14:05:51.183Z,10.87
2019-03-13T14:08:21.445Z,10.51
2019-03-13T14:10:51.704Z,10.48
2019-03-13T14:13:22.041Z,10.21
2019-03-13T14:15:54.005Z,10.01
2019-03-13T14:18:24.274Z,10.29
2019-03-13T14:20:55.244Z,10.65
2019-03-13T14:23:26.831Z,10.96
2019-03-13T14:25:59.155Z,11.12
2019-03-13T14:28:31.480Z,11.05
2019-03-13T14:31:05.075Z,10.93
2019-03-13T14:33:36.870Z,11.07
2019-03-13T14:36:09.550Z,10.84
2019-03-13T14:38:40.974Z,10.74
2019-03-13T14:41:11.972Z,10.80
2019-03-13T14:43:42.496Z,10.97
2019-03-13T14:46:12.860Z,10.74
2019-03-13T14:48:45.983Z,10.82
2019-03-13T14:51:18.436Z,10.64
2019-03-13T14:53:48.917Z,10.48
2019-03-13T14:56:19.655Z,10.45
2019-03-13T14:58:50.287Z,10.30
2019-03-13T15:01:24.259Z,10.30
2019-03-13T15:03:56.239Z,10.37
2019-03-13T15:06:26.692Z,10.44
2019-03-13T15:08:58.420Z,10.51
2019-03-13T15:11:30.758Z,10.57
2019-03-13T15:14:02.416Z,10.61
2019-03-13T15:16:32.751Z,10.55
2019-03-13T15:19:03.306Z,10.50
2019-03-13T15:21:33.807Z,10.50
2019-03-13T15:24:04.349Z,10.44
2019-03-13T15:26:35.167Z,10.27
2019-03-13T15:29:06.771Z,10.12
2019-03-13T15:31:37.186Z,10.06
2019-03-13T15:34:09.662Z,9.97
2019-03-13T15:36:41.558Z,9.91
2019-03-13T15:39:11.909Z,9.97
2019-03-13T15:41:42.800Z,9.97
2019-03-13T15:44:13.182Z,9.86
2019-03-13T15:46:44.630Z,9.80
2019-03-13T15:49:16.375Z,9.82
2019-03-13T15:51:48.555Z,9.76
2019-03-13T15:54:19.039Z,9.63
2019-03-13T15:56:49.526Z,9.56
2019-03-13T15:59:20.167Z,9.48
2019-03-13T16:01:50.557Z,9.42
2019-03-13T16:04:22.666Z,9.39
2019-03-13T16:06:53.183Z,9.37
2019-03-13T16:09:23.720Z,9.31
2019-03-13T16:11:54.325Z,9.30
2019-03-13T16:14:24.913Z,9.26
2019-03-13T16:16:55.485Z,9.18
2019-03-13T16:19:30.658Z,9.12
2019-03-13T16:22:04.993Z,9.03
2019-03-13T16:24:37.082Z,8.99
2019-03-13T16:27:07.606Z,8.94
2019-03-13T16:29:38.202Z,8.90
2019-03-13T16:32:12.666Z,8.86
2019-03-13T16:34:43.402Z,8.83
2019-03-13T16:37:14.040Z,8.82
2019-03-13T16:39:45.710Z,8.81
2019-03-13T16:42:18.396Z,8.78
2019-03-13T16:44:49.859Z,8.69
2019-03-13T16:47:20.391Z,8.64
2019-03-13T16:49:52.746Z,8.60
2019-03-13T16:52:24.208Z,8.60
2019-03-13T16:54:54.795Z,8.55
2019-03-13T16:57:25.295Z,8.49
2019-03-13T17:00:00.460Z,8.50
2019-03-13T17:02:29.100Z,8.46
2019-03-13T17:05:00.836Z,8.48
2019-03-13T17:07:32.620Z,8.46
2019-03-13T17:10:03.141Z,8.45
2019-03-13T17:12:33.668Z,8.47
2019-03-13T17:15:11.656Z,8.43
2019-03-13T17:17:43.672Z,8.40
2019-03-13T17:20:43.242Z,8.38
2019-03-13T17:23:15.973Z,8.35
2019-03-13T17:25:47.778Z,8.30
2019-03-13T17:28:21.815Z,8.25
2019-03-13T17:30:52.560Z,8.22
2019-03-13T17:33:23.149Z,8.15
2019-03-13T17:35:54.520Z,8.15
2019-03-13T17:38:25.206Z,8.13
2019-03-13T17:40:55.585Z,8.14
2019-03-13T17:43:38.539Z,8.15
2019-03-13T17:45:58.216Z,8.15
2019-03-13T17:48:30.643Z,8.18
2019-03-13T17:51:03.082Z,8.19
2019-03-13T17:53:35.802Z,8.18
2019-03-13T17:56:08.158Z,8.18
2019-03-13T17:58:40.511Z,8.17
2019-03-13T18:01:13.139Z,8.15
2019-03-13T18:03:43.716Z,8.09
2019-03-13T18:06:15.586Z,8.10
2019-03-13T18:08:46.181Z,8.09
2019-03-13T18:11:17.851Z,8.05
2019-03-13T18:13:49.974Z,8.05
2019-03-13T18:16:22.059Z,8.07
2019-03-13T18:18:52.632Z,8.03
2019-03-13T18:21:23.190Z,7.99
2019-03-13T18:23:54.599Z,8.01
2019-03-13T18:26:27.164Z,7.99
2019-03-13T18:28:59.797Z,7.97
2019-03-13T18:31:30.172Z,7.99
2019-03-13T18:34:02.711Z,7.97
2019-03-13T18:36:39.819Z,7.99
2019-03-13T18:39:11.279Z,7.98
2019-03-13T18:41:43.915Z,7.92
2019-03-13T18:44:15.428Z,7.92
2019-03-13T18:46:47.388Z,7.92
2019-03-13T18:49:19.139Z,7.89
2019-03-13T18:51:52.750Z,7.86
2019-03-13T18:54:25.997Z,7.85
2019-03-13T18:56:56.493Z,7.84
2019-03-13T18:59:31.058Z,7.82
2019-03-13T19:02:01.442Z,7.80
2019-03-13T19:04:33.572Z,7.81
2019-03-13T19:07:04.144Z,7.81
2019-03-13T19:09:34.516Z,7.79
2019-03-13T19:12:05.025Z,7.81
2019-03-13T19:14:36.204Z,7.83
2019-03-13T19:17:06.699Z,7.81
2019-03-13T19:19:38.184Z,7.82
2019-03-13T19:22:09.608Z,7.79
2019-03-13T19:24:50.511Z,7.80
2019-03-13T19:27:21.097Z,7.78
2019-03-13T19:29:51.619Z,7.73
2019-03-13T19:32:22.238Z,7.72
2019-03-13T19:34:52.717Z,7.74
2019-03-13T19:37:27.948Z,7.69
2019-03-13T19:39:57.757Z,7.70
2019-03-13T19:42:29.551Z,7.68
2019-03-13T19:45:01.793Z,7.65
2019-03-13T19:47:32.739Z,7.66
2019-03-13T19:50:03.311Z,7.65
2019-03-13T19:52:36.030Z,7.63
2019-03-13T19:55:12.093Z,7.64
2019-03-13T19:57:44.370Z,7.64
2019-03-13T20:00:26.454Z,7.64
2019-03-13T20:03:02.424Z,7.62
2019-03-13T20:05:44.873Z,7.61
2019-03-13T20:08:13.657Z,7.61
2019-03-13T20:10:43.133Z,7.61
2019-03-13T20:13:16.519Z,7.61
2019-03-13T20:15:48.600Z,7.61
2019-03-13T20:18:19.080Z,7.63
2019-03-13T20:20:52.104Z,7.62
2019-03-13T20:23:22.530Z,7.60
2019-03-13T20:25:53.110Z,7.59
2019-03-13T20:28:23.938Z,7.62
2019-03-13T20:30:54.286Z,7.63
2019-03-13T20:33:25.901Z,7.61
2019-03-13T20:35:56.419Z,7.63
2019-03-13T20:38:27.877Z,7.61
2019-03-13T20:40:58.437Z,7.59
2019-03-13T20:43:29.241Z,7.60
2019-03-13T20:45:59.771Z,7.61
2019-03-13T20:48:30.316Z,7.65
2019-03-13T20:51:00.828Z,7.59
2019-03-13T20:53:32.972Z,7.59
2019-03-13T20:56:03.462Z,7.57
2019-03-13T20:58:37.796Z,7.59
2019-03-13T21:01:16.818Z,7.58
2019-03-13T21:03:47.335Z,7.56
2019-03-13T21:06:17.880Z,7.54
2019-03-13T21:08:54.319Z,7.54
2019-03-13T21:11:24.413Z,7.54
2019-03-13T21:13:54.934Z,7.52
2019-03-13T21:16:25.484Z,7.52
2019-03-13T21:18:56.049Z,7.50
2019-03-13T21:21:26.534Z,7.47
2019-03-13T21:23:57.058Z,7.45
2019-03-13T21:26:27.620Z,7.41
2019-03-13T21:28:58.413Z,7.39
2019-03-13T21:31:28.675Z,7.40
2019-03-13T21:33:59.468Z,7.37
2019-03-13T21:36:30.951Z,7.38
2019-03-13T21:39:01.479Z,7.35
2019-03-13T21:41:36.012Z,7.37
2019-03-13T21:44:07.460Z,7.37
2019-03-13T21:46:37.985Z,7.35
2019-03-13T21:49:08.769Z,7.36
2019-03-13T21:51:39.345Z,7.36
2019-03-13T21:54:09.880Z,7.36
2019-03-13T21:56:40.442Z,7.37
2019-03-13T21:59:12.161Z,7.38
2019-03-13T22:01:43.615Z,7.39
2019-03-13T22:04:23.682Z,7.39
2019-03-13T22:06:47.423Z,7.40
2019-03-13T22:09:19.481Z,7.44
2019-03-13T22:11:50.340Z,7.45
2019-03-13T22:14:20.852Z,7.41
2019-03-13T22:16:53.248Z,7.45
2019-03-13T22:19:24.669Z,7.43
2019-03-13T22:21:55.214Z,7.43
2019-03-13T22:24:26.658Z,7.47
2019-03-13T22:26:58.117Z,7.47
2019-03-13T22:29:29.548Z,7.45
2019-03-13T22:32:01.649Z,7.45
2019-03-13T22:34:32.187Z,7.49
2019-03-13T22:37:03.923Z,7.46
2019-03-13T22:39:34.441Z,7.48
2019-03-13T22:42:04.965Z,7.43
2019-03-13T22:44:35.509Z,7.42
2019-03-13T22:47:08.225Z,7.42
2019-03-13T22:49:38.708Z,7.40
2019-03-13T22:52:09.285Z,7.41
2019-03-13T22:54:39.795Z,7.39
2019-03-13T22:57:12.166Z,7.36
2019-03-13T22:59:42.703Z,7.36
2019-03-13T23:02:13.227Z,7.37
2019-03-13T23:04:43.735Z,7.34
2019-03-13T23:07:14.285Z,7.33
2019-03-13T23:09:44.787Z,7.27
2019-03-13T23:12:15.327Z,7.27
2019-03-13T23:14:46.772Z,7.27
2019-03-13T23:17:18.239Z,7.24
2019-03-13T23:19:49.667Z,7.25
2019-03-13T23:22:19.926Z,7.25
2019-03-13T23:24:51.361Z,7.24
2019-03-13T23:27:21.898Z,7.22
2019-03-13T23:29:52.409Z,7.17
2019-03-13T23:32:23.870Z,7.17
2019-03-13T23:34:54.386Z,7.16
2019-03-13T23:37:25.839Z,7.16
2019-03-13T23:39:56.366Z,7.14
2019-03-13T23:42:27.847Z,7.13
2019-03-13T23:44:59.265Z,7.12
2019-03-13T23:47:29.801Z,7.14
2019-03-13T23:50:00.483Z,7.09
2019-03-13T23:52:32.403Z,7.07
2019-03-13T23:55:02.922Z,7.11
2019-03-13T23:57:33.450Z,7.08
